createdAt,value
2022-08-02T00:00:50.746Z,27.92
2022-08-02T00:01:50.764Z,27.88
2022-08-02T00:02:50.749Z,27.85
2022-08-02T00:03:50.752Z,27.94
2022-08-02T00:04:50.752Z,27.99
2022-08-02T00:05:53.009Z,27.90
2022-08-02T00:06:50.753Z,27.92
2022-08-02T00:07:50.756Z,27.94
2022-08-02T00:08:50.756Z,27.92
2022-08-02T00:09:50.757Z,27.93
2022-08-02T00:10:50.756Z,27.90
2022-08-02T00:11:50.760Z,27.93
2022-08-02T00:12:50.758Z,27.84
2022-08-02T00:13:50.759Z,27.93
2022-08-02T00:14:50.760Z,27.94
2022-08-02T00:15:50.762Z,27.99
2022-08-02T00:16:50.762Z,27.85
2022-08-02T00:17:50.762Z,28.00
2022-08-02T00:18:50.764Z,27.85
2022-08-02T00:19:50.766Z,27.93
2022-08-02T00:20:50.767Z,27.90
2022-08-02T00:21:50.770Z,27.94
2022-08-02T00:22:50.768Z,27.99
2022-08-02T00:24:27.518Z,27.92
2022-08-02T00:24:50.767Z,27.93
2022-08-02T00:25:54.898Z,27.92
2022-08-02T00:26:50.769Z,27.94
2022-08-02T00:27:50.773Z,27.96
2022-08-02T00:28:50.773Z,27.93
2022-08-02T00:29:53.108Z,27.93
2022-08-02T00:30:50.774Z,27.85
2022-08-02T00:31:50.777Z,27.97
2022-08-02T00:32:50.774Z,27.92
2022-08-02T00:34:04.880Z,27.94
2022-08-02T00:34:50.779Z,27.93
2022-08-02T00:35:50.826Z,27.92
2022-08-02T00:36:50.778Z,27.92
2022-08-02T00:37:50.780Z,27.94
2022-08-02T00:38:50.781Z,27.94
2022-08-02T00:39:50.782Z,27.90
2022-08-02T00:40:53.315Z,27.92
2022-08-02T00:41:50.784Z,27.93
2022-08-02T00:42:50.782Z,27.85
2022-08-02T00:43:50.788Z,27.87
2022-08-02T00:44:50.785Z,27.92
2022-08-02T00:46:02.269Z,27.92
2022-08-02T00:46:50.788Z,27.92
2022-08-02T00:47:50.789Z,27.96
2022-08-02T00:48:50.839Z,27.96
2022-08-02T00:49:50.789Z,27.96
2022-08-02T00:50:50.792Z,27.93
2022-08-02T00:51:50.794Z,27.92
2022-08-02T00:52:50.792Z,27.96
2022-08-02T00:53:50.794Z,27.85
2022-08-02T00:54:50.796Z,27.93
2022-08-02T00:55:50.795Z,27.90
2022-08-02T00:56:51.182Z,27.93
2022-08-02T00:57:50.795Z,27.99
2022-08-02T00:58:50.800Z,27.90
2022-08-02T00:59:50.805Z,27.92
2022-08-02T01:00:50.803Z,27.92
2022-08-02T01:01:57.850Z,27.87
2022-08-02T01:02:50.805Z,27.90
2022-08-02T01:03:50.802Z,27.93
2022-08-02T01:04:50.804Z,27.82
2022-08-02T01:06:10.150Z,27.88
2022-08-02T01:06:50.806Z,27.88
2022-08-02T01:07:50.807Z,27.96
2022-08-02T01:08:50.809Z,27.93
2022-08-02T01:09:50.806Z,27.92
2022-08-02T01:10:50.810Z,27.97
2022-08-02T01:11:50.816Z,27.90
2022-08-02T01:12:50.810Z,27.92
2022-08-02T01:13:50.811Z,27.96
2022-08-02T01:14:50.812Z,27.94
2022-08-02T01:15:50.811Z,27.85
2022-08-02T01:16:50.815Z,27.93
2022-08-02T01:17:50.812Z,27.92
2022-08-02T01:18:50.815Z,27.92
2022-08-02T01:19:50.816Z,27.97
2022-08-02T01:20:50.816Z,27.94
2022-08-02T01:21:50.817Z,27.85
2022-08-02T01:23:04.595Z,27.88
2022-08-02T01:23:50.819Z,27.84
2022-08-02T01:24:50.821Z,27.84
2022-08-02T01:25:50.821Z,27.93
2022-08-02T01:26:50.821Z,27.94
2022-08-02T01:27:50.820Z,27.93
2022-08-02T01:28:50.822Z,27.96
2022-08-02T01:29:50.823Z,27.84
2022-08-02T01:30:50.824Z,27.85
2022-08-02T01:31:50.824Z,27.92
2022-08-02T01:32:50.826Z,27.88
2022-08-02T01:33:50.828Z,27.90
2022-08-02T01:34:50.828Z,27.88
2022-08-02T01:35:51.432Z,27.88
2022-08-02T01:36:50.831Z,27.96
2022-08-02T01:37:50.828Z,27.88
2022-08-02T01:38:50.833Z,27.94
2022-08-02T01:39:50.831Z,27.93
2022-08-02T01:40:50.833Z,27.88
2022-08-02T01:41:50.833Z,27.96
2022-08-02T01:42:50.835Z,27.93
2022-08-02T01:43:50.835Z,27.90
2022-08-02T01:44:50.837Z,27.81
2022-08-02T01:45:50.835Z,27.90
2022-08-02T01:46:50.837Z,27.93
2022-08-02T01:47:50.836Z,27.90
2022-08-02T01:48:50.943Z,27.88
2022-08-02T01:49:50.838Z,27.88
2022-08-02T01:50:50.842Z,27.94
2022-08-02T01:51:50.845Z,27.90
2022-08-02T01:52:53.085Z,27.88
2022-08-02T01:53:50.841Z,27.97
2022-08-02T01:54:50.845Z,27.92
2022-08-02T01:55:57.799Z,27.93
2022-08-02T01:56:50.844Z,27.92
2022-08-02T01:57:50.847Z,27.88
2022-08-02T01:58:50.849Z,27.92
2022-08-02T01:59:50.846Z,27.93
2022-08-02T02:00:50.924Z,27.87
2022-08-02T02:01:50.941Z,27.90
2022-08-02T02:02:50.853Z,27.93
2022-08-02T02:03:50.850Z,27.90
2022-08-02T02:04:50.852Z,27.93
2022-08-02T02:05:50.852Z,27.93
2022-08-02T02:06:50.854Z,27.92
2022-08-02T02:07:50.854Z,27.92
2022-08-02T02:08:50.855Z,27.92
2022-08-02T02:09:51.110Z,27.90
2022-08-02T02:10:50.858Z,27.92
2022-08-02T02:12:11.592Z,27.93
2022-08-02T02:12:50.859Z,27.90
2022-08-02T02:13:50.858Z,27.90
2022-08-02T02:14:52.130Z,27.92
2022-08-02T02:15:50.861Z,27.90
2022-08-02T02:16:50.862Z,27.92
2022-08-02T02:18:13.210Z,27.94
2022-08-02T02:18:50.864Z,27.90
2022-08-02T02:19:50.864Z,27.88
2022-08-02T02:20:50.864Z,27.92
2022-08-02T02:21:50.864Z,27.88
2022-08-02T02:22:50.868Z,27.90
2022-08-02T02:23:51.115Z,27.90
2022-08-02T02:24:50.869Z,27.94
2022-08-02T02:25:50.870Z,27.93
2022-08-02T02:26:52.588Z,27.93
2022-08-02T02:27:50.869Z,27.90
2022-08-02T02:28:50.875Z,27.92
2022-08-02T02:29:50.872Z,27.93
2022-08-02T02:30:50.874Z,27.88
2022-08-02T02:31:50.873Z,27.84
2022-08-02T02:32:50.876Z,27.85
2022-08-02T02:33:50.875Z,27.87
2022-08-02T02:34:50.877Z,27.92
2022-08-02T02:35:50.877Z,27.93
2022-08-02T02:36:50.881Z,27.85
2022-08-02T02:37:50.877Z,27.90
2022-08-02T02:38:50.881Z,27.82
2022-08-02T02:39:50.881Z,27.99
2022-08-02T02:40:50.881Z,27.93
2022-08-02T02:41:50.881Z,27.84
2022-08-02T02:42:50.885Z,27.87
2022-08-02T02:43:50.884Z,27.87
2022-08-02T02:44:50.886Z,27.88
2022-08-02T02:45:50.885Z,27.92
2022-08-02T02:46:50.888Z,27.92
2022-08-02T02:47:50.887Z,27.85
2022-08-02T02:48:50.913Z,27.79
2022-08-02T02:49:50.888Z,27.79
2022-08-02T02:50:50.889Z,27.79
2022-08-02T02:51:50.890Z,27.88
2022-08-02T02:52:50.890Z,27.85
2022-08-02T02:54:30.343Z,27.88
2022-08-02T02:54:50.896Z,27.84
2022-08-02T02:56:01.597Z,27.88
2022-08-02T02:56:50.895Z,27.90
2022-08-02T02:57:50.894Z,27.87
2022-08-02T02:58:50.898Z,27.87
2022-08-02T02:59:50.896Z,27.96
2022-08-02T03:00:50.940Z,27.93
2022-08-02T03:01:57.006Z,27.81
2022-08-02T03:02:50.900Z,27.93
2022-08-02T03:03:50.899Z,27.96
2022-08-02T03:04:57.113Z,27.81
2022-08-02T03:05:50.901Z,27.92
2022-08-02T03:06:50.903Z,27.87
2022-08-02T03:07:50.905Z,27.92
2022-08-02T03:08:50.905Z,27.84
2022-08-02T03:09:54.186Z,27.94
2022-08-02T03:10:50.907Z,27.84
2022-08-02T03:11:50.906Z,27.85
2022-08-02T03:12:50.908Z,27.87
2022-08-02T03:13:50.977Z,27.82
2022-08-02T03:14:50.910Z,27.81
2022-08-02T03:15:50.909Z,27.88
2022-08-02T03:16:50.919Z,27.85
2022-08-02T03:17:50.911Z,27.93
2022-08-02T03:18:50.912Z,27.90
2022-08-02T03:19:50.914Z,27.84
2022-08-02T03:20:50.915Z,27.85
2022-08-02T03:21:57.224Z,27.85
2022-08-02T03:22:50.918Z,27.85
2022-08-02T03:23:50.918Z,27.82
2022-08-02T03:24:50.921Z,27.85
2022-08-02T03:25:50.918Z,27.88
2022-08-02T03:26:50.920Z,27.82
2022-08-02T03:27:50.932Z,27.82
2022-08-02T03:28:50.932Z,27.85
2022-08-02T03:29:50.924Z,27.85
2022-08-02T03:30:50.923Z,27.85
2022-08-02T03:31:50.924Z,27.88
2022-08-02T03:32:50.925Z,27.88
2022-08-02T03:33:50.924Z,27.81
2022-08-02T03:34:50.927Z,27.87
2022-08-02T03:35:50.926Z,27.88
2022-08-02T03:36:50.927Z,27.87
2022-08-02T03:37:50.926Z,27.84
2022-08-02T03:38:50.930Z,27.85
2022-08-02T03:39:53.020Z,27.87
2022-08-02T03:40:50.932Z,27.87
2022-08-02T03:41:50.931Z,27.93
2022-08-02T03:42:50.933Z,27.87
2022-08-02T03:43:50.936Z,27.92
2022-08-02T03:44:50.934Z,27.85
2022-08-02T03:45:50.935Z,27.82
2022-08-02T03:46:50.936Z,27.92
2022-08-02T03:47:50.937Z,27.93
2022-08-02T03:48:51.021Z,27.72
2022-08-02T03:49:50.937Z,27.93
2022-08-02T03:50:50.939Z,27.84
2022-08-02T03:51:50.939Z,27.84
2022-08-02T03:52:50.940Z,27.90
2022-08-02T03:53:50.941Z,27.75
2022-08-02T03:54:50.942Z,27.87
2022-08-02T03:55:50.942Z,27.90
2022-08-02T03:56:50.944Z,27.72
2022-08-02T03:57:50.943Z,27.82
2022-08-02T03:58:50.949Z,27.74
2022-08-02T03:59:50.946Z,27.93
2022-08-02T04:00:51.026Z,27.81
2022-08-02T04:01:50.950Z,27.81
2022-08-02T04:02:50.951Z,27.81
2022-08-02T04:03:50.948Z,27.93
2022-08-02T04:04:50.951Z,27.84
2022-08-02T04:06:01.061Z,27.93
2022-08-02T04:06:50.952Z,27.90
2022-08-02T04:08:33.158Z,27.88
2022-08-02T04:08:50.954Z,27.87
2022-08-02T04:09:50.954Z,27.96
2022-08-02T04:10:50.956Z,27.82
2022-08-02T04:11:50.956Z,27.85
2022-08-02T04:12:50.957Z,27.85
2022-08-02T04:13:50.956Z,27.75
2022-08-02T04:14:50.959Z,27.70
2022-08-02T04:15:50.959Z,27.85
2022-08-02T04:16:50.961Z,27.97
2022-08-02T04:17:50.961Z,27.88
2022-08-02T04:18:50.963Z,27.87
2022-08-02T04:19:50.962Z,27.81
2022-08-02T04:20:50.964Z,27.87
2022-08-02T04:21:52.185Z,27.94
2022-08-02T04:22:50.966Z,27.85
2022-08-02T04:23:50.964Z,27.72
2022-08-02T04:24:50.966Z,27.82
2022-08-02T04:25:51.504Z,27.92
2022-08-02T04:26:50.968Z,27.82
2022-08-02T04:28:16.930Z,27.84
2022-08-02T04:28:50.969Z,27.75
2022-08-02T04:29:50.969Z,27.92
2022-08-02T04:30:50.978Z,27.88
2022-08-02T04:31:50.970Z,27.84
2022-08-02T04:32:50.973Z,27.72
2022-08-02T04:33:50.973Z,27.72
2022-08-02T04:35:17.723Z,27.92
2022-08-02T04:35:50.974Z,27.74
2022-08-02T04:36:50.976Z,27.88
2022-08-02T04:38:08.799Z,27.88
2022-08-02T04:38:50.981Z,27.75
2022-08-02T04:39:50.978Z,27.90
2022-08-02T04:40:50.980Z,27.74
2022-08-02T04:41:55.725Z,27.88
2022-08-02T04:42:50.982Z,27.77
2022-08-02T04:43:50.981Z,27.90
2022-08-02T04:44:50.981Z,27.69
2022-08-02T04:45:50.982Z,27.72
2022-08-02T04:46:50.986Z,27.74
2022-08-02T04:48:02.611Z,27.92
2022-08-02T04:48:51.017Z,27.85
2022-08-02T04:49:50.985Z,27.87
2022-08-02T04:50:50.987Z,27.72
2022-08-02T04:51:50.987Z,27.87
2022-08-02T04:52:50.989Z,27.87
2022-08-02T04:53:50.988Z,27.92
2022-08-02T04:54:50.991Z,27.94
2022-08-02T04:55:50.991Z,27.75
2022-08-02T04:56:50.991Z,27.94
2022-08-02T04:57:53.125Z,27.78
2022-08-02T04:58:50.993Z,27.96
2022-08-02T04:59:54.523Z,27.90
2022-08-02T05:00:51.067Z,27.87
2022-08-02T05:01:50.995Z,27.84
2022-08-02T05:02:50.996Z,27.88
2022-08-02T05:03:50.996Z,27.82
2022-08-02T05:04:50.998Z,27.81
2022-08-02T05:05:50.999Z,27.92
2022-08-02T05:06:51.000Z,27.79
2022-08-02T05:07:51.000Z,27.82
2022-08-02T05:08:53.118Z,27.92
2022-08-02T05:09:51.002Z,27.92
2022-08-02T05:10:51.002Z,27.84
2022-08-02T05:11:54.865Z,27.93
2022-08-02T05:12:51.003Z,27.78
2022-08-02T05:13:58.083Z,27.92
2022-08-02T05:14:51.005Z,27.84
2022-08-02T05:15:51.006Z,27.85
2022-08-02T05:16:51.007Z,27.82
2022-08-02T05:17:51.009Z,27.85
2022-08-02T05:18:51.007Z,27.84
2022-08-02T05:19:51.010Z,27.88
2022-08-02T05:20:54.098Z,27.82
2022-08-02T05:21:51.011Z,27.84
2022-08-02T05:22:51.020Z,27.92
2022-08-02T05:23:51.012Z,27.79
2022-08-02T05:24:51.011Z,27.81
2022-08-02T05:25:51.013Z,27.79
2022-08-02T05:26:51.014Z,27.90
2022-08-02T05:27:51.017Z,27.82
2022-08-02T05:28:51.014Z,27.78
2022-08-02T05:29:52.959Z,27.81
2022-08-02T05:30:51.017Z,27.79
2022-08-02T05:31:51.019Z,27.74
2022-08-02T05:32:51.019Z,27.88
2022-08-02T05:33:51.023Z,27.82
2022-08-02T05:34:51.022Z,27.78
2022-08-02T05:35:51.022Z,27.81
2022-08-02T05:36:51.024Z,27.82
2022-08-02T05:37:51.023Z,27.90
2022-08-02T05:38:51.036Z,27.81
2022-08-02T05:39:55.401Z,27.88
2022-08-02T05:40:54.407Z,27.93
2022-08-02T05:41:51.026Z,27.75
2022-08-02T05:42:51.027Z,27.87
2022-08-02T05:43:51.029Z,27.88
2022-08-02T05:44:51.027Z,27.81
2022-08-02T05:45:51.029Z,27.87
2022-08-02T05:46:51.031Z,27.79
2022-08-02T05:47:51.034Z,27.85
2022-08-02T05:48:51.078Z,27.84
2022-08-02T05:49:51.036Z,27.85
2022-08-02T05:50:51.036Z,27.85
2022-08-02T05:51:51.037Z,27.82
2022-08-02T05:52:51.035Z,27.78
2022-08-02T05:53:51.037Z,27.82
2022-08-02T05:54:51.037Z,27.78
2022-08-02T05:55:51.038Z,27.79
2022-08-02T05:56:51.039Z,27.85
2022-08-02T05:57:51.040Z,27.79
2022-08-02T05:58:51.039Z,27.81
2022-08-02T05:59:51.041Z,27.82
2022-08-02T06:00:51.040Z,27.84
2022-08-02T06:01:51.065Z,27.77
2022-08-02T06:02:51.042Z,27.84
2022-08-02T06:03:51.044Z,27.82
2022-08-02T06:04:51.046Z,27.87
2022-08-02T06:05:51.046Z,27.85
2022-08-02T06:06:51.045Z,27.78
2022-08-02T06:07:51.049Z,27.87
2022-08-02T06:08:51.048Z,27.82
2022-08-02T06:09:51.050Z,27.77
2022-08-02T06:10:51.049Z,27.72
2022-08-02T06:12:01.817Z,27.88
2022-08-02T06:12:51.050Z,27.84
2022-08-02T06:13:51.052Z,27.78
2022-08-02T06:14:54.422Z,27.84
2022-08-02T06:15:52.660Z,27.84
2022-08-02T06:16:51.054Z,27.84
2022-08-02T06:17:51.055Z,27.79
2022-08-02T06:18:51.057Z,27.75
2022-08-02T06:19:52.715Z,27.79
2022-08-02T06:20:51.058Z,27.84
2022-08-02T06:22:42.029Z,27.87
2022-08-02T06:22:51.062Z,27.74
2022-08-02T06:23:59.219Z,27.79
2022-08-02T06:24:51.061Z,27.84
2022-08-02T06:25:51.823Z,27.82
2022-08-02T06:26:51.061Z,27.75
2022-08-02T06:27:51.064Z,27.70
2022-08-02T06:28:51.062Z,27.84
2022-08-02T06:29:51.065Z,27.78
2022-08-02T06:30:51.065Z,27.81
2022-08-02T06:31:51.066Z,27.79
2022-08-02T06:32:51.065Z,27.82
2022-08-02T06:33:51.068Z,27.82
2022-08-02T06:34:51.067Z,27.78
2022-08-02T06:35:51.069Z,27.81
2022-08-02T06:36:51.070Z,27.77
2022-08-02T06:37:53.597Z,27.84
2022-08-02T06:38:51.267Z,27.78
2022-08-02T06:39:51.085Z,27.75
2022-08-02T06:40:51.073Z,27.84
2022-08-02T06:41:51.075Z,27.79
2022-08-02T06:42:51.075Z,27.87
2022-08-02T06:43:51.075Z,27.82
2022-08-02T06:44:55.562Z,27.84
2022-08-02T06:45:51.078Z,27.81
2022-08-02T06:47:11.180Z,27.84
2022-08-02T06:47:51.079Z,27.81
2022-08-02T06:48:51.116Z,27.93
2022-08-02T06:49:54.207Z,27.82
2022-08-02T06:50:51.081Z,27.84
2022-08-02T06:51:51.085Z,27.87
2022-08-02T06:52:51.080Z,27.88
2022-08-02T06:53:51.084Z,27.72
2022-08-02T06:54:51.085Z,27.92
2022-08-02T06:55:51.087Z,27.88
2022-08-02T06:56:51.085Z,27.85
2022-08-02T06:57:51.087Z,27.85
2022-08-02T06:58:51.088Z,27.85
2022-08-02T06:59:51.094Z,27.87
2022-08-02T07:00:51.090Z,27.92
2022-08-02T07:01:51.114Z,27.78
2022-08-02T07:02:51.090Z,27.82
2022-08-02T07:03:51.103Z,27.94
2022-08-02T07:04:51.100Z,27.85
2022-08-02T07:05:51.094Z,27.90
2022-08-02T07:06:51.096Z,27.77
2022-08-02T07:07:51.095Z,27.99
2022-08-02T07:09:18.329Z,27.94
2022-08-02T07:10:00.423Z,27.85
2022-08-02T07:10:51.098Z,27.90
2022-08-02T07:11:51.099Z,27.88
2022-08-02T07:12:51.097Z,27.84
2022-08-02T07:13:51.099Z,27.92
2022-08-02T07:14:51.101Z,27.84
2022-08-02T07:15:51.109Z,27.92
2022-08-02T07:16:51.102Z,27.87
2022-08-02T07:17:51.102Z,27.90
2022-08-02T07:18:51.104Z,27.92
2022-08-02T07:19:51.106Z,27.92
2022-08-02T07:20:51.105Z,27.82
2022-08-02T07:21:57.474Z,27.96
2022-08-02T07:22:51.109Z,27.85
2022-08-02T07:23:51.109Z,27.90
2022-08-02T07:24:51.113Z,27.94
2022-08-02T07:26:03.376Z,27.92
2022-08-02T07:27:10.405Z,27.88
2022-08-02T07:27:51.113Z,27.96
2022-08-02T07:28:51.112Z,27.92
2022-08-02T07:29:51.114Z,27.93
2022-08-02T07:30:51.115Z,27.90
2022-08-02T07:31:51.115Z,27.94
2022-08-02T07:32:51.116Z,27.85
2022-08-02T07:33:51.117Z,27.97
2022-08-02T07:34:52.908Z,27.92
2022-08-02T07:35:51.120Z,27.92
2022-08-02T07:36:51.119Z,27.94
2022-08-02T07:37:54.830Z,27.93
2022-08-02T07:38:51.123Z,28.02
2022-08-02T07:39:51.124Z,28.03
2022-08-02T07:40:51.123Z,28.03
2022-08-02T07:41:51.125Z,28.03
2022-08-02T07:42:51.124Z,28.11
2022-08-02T07:43:51.128Z,28.09
2022-08-02T07:44:51.126Z,28.00
2022-08-02T07:45:56.460Z,28.07
2022-08-02T07:46:51.131Z,28.04
2022-08-02T07:47:51.131Z,28.06
2022-08-02T07:48:51.170Z,28.02
2022-08-02T07:49:51.132Z,28.09
2022-08-02T07:50:51.132Z,28.15
2022-08-02T07:51:51.135Z,28.03
2022-08-02T07:52:57.444Z,28.03
2022-08-02T07:54:02.758Z,28.03
2022-08-02T07:54:51.141Z,28.03
2022-08-02T07:55:51.141Z,28.09
2022-08-02T07:56:51.138Z,28.00
2022-08-02T07:57:51.143Z,28.02
2022-08-02T07:58:51.141Z,28.00
2022-08-02T07:59:51.144Z,28.11
2022-08-02T08:00:51.142Z,28.09
2022-08-02T08:01:51.217Z,28.12
2022-08-02T08:02:51.145Z,28.11
2022-08-02T08:03:51.158Z,28.06
2022-08-02T08:04:51.146Z,28.06
2022-08-02T08:05:51.150Z,28.04
2022-08-02T08:06:51.149Z,28.09
2022-08-02T08:07:51.151Z,28.11
2022-08-02T08:08:51.150Z,28.00
2022-08-02T08:09:53.620Z,28.07
2022-08-02T08:10:51.152Z,28.07
2022-08-02T08:11:51.157Z,28.09
2022-08-02T08:12:51.153Z,28.14
2022-08-02T08:13:51.158Z,28.14
2022-08-02T08:14:51.154Z,28.12
2022-08-02T08:15:52.045Z,28.12
2022-08-02T08:16:51.157Z,28.12
2022-08-02T08:17:51.159Z,28.06
2022-08-02T08:18:51.164Z,28.15
2022-08-02T08:19:52.772Z,28.12
2022-08-02T08:20:51.161Z,27.99
2022-08-02T08:21:51.163Z,28.09
2022-08-02T08:22:51.178Z,28.11
2022-08-02T08:23:51.173Z,28.09
2022-08-02T08:24:51.167Z,28.06
2022-08-02T08:25:51.167Z,28.11
2022-08-02T08:26:51.168Z,27.97
2022-08-02T08:27:51.169Z,28.07
2022-08-02T08:28:51.170Z,28.07
2022-08-02T08:29:51.174Z,28.07
2022-08-02T08:30:51.171Z,27.99
2022-08-02T08:31:51.174Z,28.02
2022-08-02T08:32:51.173Z,27.94
2022-08-02T08:33:51.174Z,27.96
2022-08-02T08:34:51.186Z,27.99
2022-08-02T08:35:51.178Z,27.96
2022-08-02T08:36:51.177Z,27.97
2022-08-02T08:37:51.180Z,28.06
2022-08-02T08:38:51.183Z,27.99
2022-08-02T08:39:57.578Z,27.93
2022-08-02T08:40:51.180Z,27.97
2022-08-02T08:41:51.184Z,27.93
2022-08-02T08:42:51.182Z,27.93
2022-08-02T08:43:53.387Z,27.99
2022-08-02T08:44:51.184Z,27.90
2022-08-02T08:45:55.945Z,27.96
2022-08-02T08:46:51.187Z,28.00
2022-08-02T08:47:51.189Z,28.00
2022-08-02T08:48:51.241Z,27.92
2022-08-02T08:49:52.587Z,27.93
2022-08-02T08:50:51.190Z,27.99
2022-08-02T08:51:51.192Z,27.93
2022-08-02T08:52:51.192Z,27.94
2022-08-02T08:53:51.198Z,27.94
2022-08-02T08:54:51.302Z,27.97
2022-08-02T08:55:51.197Z,27.97
2022-08-02T08:56:51.196Z,28.02
2022-08-02T08:57:51.197Z,27.93
2022-08-02T08:58:51.199Z,27.97
2022-08-02T08:59:51.200Z,28.00
2022-08-02T09:00:51.310Z,27.96
2022-08-02T09:01:51.462Z,27.99
2022-08-02T09:02:51.203Z,28.00
2022-08-02T09:03:51.203Z,27.99
2022-08-02T09:04:54.453Z,27.97
2022-08-02T09:05:51.205Z,27.85
2022-08-02T09:06:51.205Z,27.97
2022-08-02T09:07:51.209Z,27.88
2022-08-02T09:08:51.207Z,27.90
2022-08-02T09:09:51.209Z,27.88
2022-08-02T09:10:51.209Z,27.99
2022-08-02T09:11:51.213Z,27.88
2022-08-02T09:12:51.212Z,27.85
2022-08-02T09:13:51.217Z,27.84
2022-08-02T09:14:51.215Z,27.94
2022-08-02T09:15:51.216Z,27.99
2022-08-02T09:16:51.216Z,27.92
2022-08-02T09:17:51.218Z,27.93
2022-08-02T09:18:51.217Z,27.88
2022-08-02T09:19:51.219Z,27.96
2022-08-02T09:20:51.221Z,27.90
2022-08-02T09:21:51.220Z,27.85
2022-08-02T09:22:51.222Z,27.84
2022-08-02T09:23:51.223Z,27.94
2022-08-02T09:24:51.224Z,27.93
2022-08-02T09:25:59.534Z,27.94
2022-08-02T09:26:51.226Z,27.94
2022-08-02T09:27:51.231Z,27.85
2022-08-02T09:28:51.227Z,27.88
2022-08-02T09:30:13.281Z,27.92
2022-08-02T09:30:51.230Z,28.00
2022-08-02T09:31:51.231Z,27.93
2022-08-02T09:32:51.232Z,27.85
2022-08-02T09:33:51.243Z,27.87
2022-08-02T09:34:51.233Z,27.92
2022-08-02T09:36:06.202Z,27.85
2022-08-02T09:36:54.416Z,27.96
2022-08-02T09:37:51.235Z,27.96
2022-08-02T09:38:51.258Z,27.93
2022-08-02T09:39:51.239Z,27.87
2022-08-02T09:40:51.240Z,27.88
2022-08-02T09:41:51.242Z,27.90
2022-08-02T09:42:51.242Z,28.02
2022-08-02T09:43:52.019Z,27.92
2022-08-02T09:44:51.242Z,27.93
2022-08-02T09:45:51.244Z,27.93
2022-08-02T09:46:51.246Z,27.96
2022-08-02T09:47:51.246Z,27.99
2022-08-02T09:48:52.886Z,27.97
2022-08-02T09:49:52.588Z,27.94
2022-08-02T09:50:51.248Z,27.93
2022-08-02T09:51:51.248Z,27.85
2022-08-02T09:52:51.250Z,27.93
2022-08-02T09:53:58.548Z,27.94
2022-08-02T09:54:51.404Z,27.88
2022-08-02T09:55:51.253Z,27.85
2022-08-02T09:56:51.255Z,27.93
2022-08-02T09:57:51.676Z,27.94
2022-08-02T09:58:51.258Z,27.93
2022-08-02T09:59:51.257Z,27.97
2022-08-02T10:00:52.947Z,27.99
2022-08-02T10:02:01.523Z,27.94
2022-08-02T10:02:51.261Z,27.97
2022-08-02T10:03:51.263Z,27.85
2022-08-02T10:04:53.528Z,27.90
2022-08-02T10:05:56.119Z,27.94
2022-08-02T10:06:51.265Z,27.92
2022-08-02T10:07:51.264Z,27.90
2022-08-02T10:08:51.265Z,27.94
2022-08-02T10:09:51.278Z,27.84
2022-08-02T10:10:51.268Z,27.85
2022-08-02T10:11:51.269Z,27.90
2022-08-02T10:12:51.269Z,27.92
2022-08-02T10:13:51.270Z,27.94
2022-08-02T10:14:51.273Z,27.84
2022-08-02T10:15:51.273Z,27.99
2022-08-02T10:16:51.273Z,27.93
2022-08-02T10:17:51.272Z,27.90
2022-08-02T10:18:51.276Z,27.87
2022-08-02T10:20:02.332Z,27.94
2022-08-02T10:20:51.274Z,27.87
2022-08-02T10:21:51.277Z,27.84
2022-08-02T10:22:51.279Z,27.90
2022-08-02T10:23:51.278Z,27.88
2022-08-02T10:24:51.280Z,27.88
2022-08-02T10:25:51.280Z,27.85
2022-08-02T10:26:51.282Z,27.97
2022-08-02T10:28:04.639Z,27.92
2022-08-02T10:28:51.283Z,27.94
2022-08-02T10:29:53.583Z,27.93
2022-08-02T10:30:51.286Z,27.88
2022-08-02T10:31:51.285Z,27.92
2022-08-02T10:32:51.287Z,28.02
2022-08-02T10:33:51.286Z,27.96
2022-08-02T10:34:51.382Z,27.88
2022-08-02T10:36:04.578Z,27.92
2022-08-02T10:36:51.291Z,27.97
2022-08-02T10:37:51.293Z,27.92
2022-08-02T10:38:51.293Z,27.94
2022-08-02T10:39:51.294Z,27.88
2022-08-02T10:40:51.294Z,27.94
2022-08-02T10:41:51.294Z,27.97
2022-08-02T10:42:51.299Z,27.85
2022-08-02T10:43:51.298Z,27.85
2022-08-02T10:44:51.298Z,27.93
2022-08-02T10:45:51.298Z,27.96
2022-08-02T10:46:51.299Z,27.92
2022-08-02T10:47:51.299Z,27.99
2022-08-02T10:48:51.335Z,27.97
2022-08-02T10:49:51.373Z,28.02
2022-08-02T10:50:51.303Z,27.87
2022-08-02T10:51:51.305Z,28.03
2022-08-02T10:52:51.713Z,27.93
2022-08-02T10:53:51.305Z,27.97
2022-08-02T10:54:51.308Z,27.96
2022-08-02T10:55:51.309Z,27.96
2022-08-02T10:56:51.309Z,27.93
2022-08-02T10:57:51.310Z,27.94
2022-08-02T10:58:51.319Z,27.88
2022-08-02T10:59:51.323Z,28.03
2022-08-02T11:00:51.368Z,28.00
2022-08-02T11:01:51.314Z,27.93
2022-08-02T11:02:53.127Z,27.94
2022-08-02T11:03:51.315Z,27.92
2022-08-02T11:04:51.316Z,27.92
2022-08-02T11:05:51.316Z,27.88
2022-08-02T11:06:51.320Z,27.92
2022-08-02T11:07:51.322Z,27.99
2022-08-02T11:08:51.320Z,27.94
2022-08-02T11:09:51.323Z,27.88
2022-08-02T11:10:51.325Z,27.92
2022-08-02T11:11:53.990Z,28.00
2022-08-02T11:12:51.326Z,27.93
2022-08-02T11:13:51.324Z,27.93
2022-08-02T11:14:51.326Z,27.90
2022-08-02T11:15:51.333Z,27.99
2022-08-02T11:16:51.329Z,27.99
2022-08-02T11:17:51.329Z,27.97
2022-08-02T11:18:51.345Z,27.92
2022-08-02T11:19:51.332Z,27.97
2022-08-02T11:20:51.331Z,27.93
2022-08-02T11:21:51.331Z,27.90
2022-08-02T11:22:51.334Z,27.99
2022-08-02T11:23:51.336Z,27.97
2022-08-02T11:24:51.336Z,27.99
2022-08-02T11:26:10.893Z,27.97
2022-08-02T11:26:51.338Z,28.02
2022-08-02T11:27:51.345Z,27.99
2022-08-02T11:28:51.342Z,27.96
2022-08-02T11:29:51.339Z,27.93
2022-08-02T11:30:51.342Z,28.03
2022-08-02T11:31:51.342Z,28.03
2022-08-02T11:32:51.344Z,27.94
2022-08-02T11:33:51.344Z,27.92
2022-08-02T11:34:51.345Z,28.03
2022-08-02T11:35:51.345Z,27.99
2022-08-02T11:36:51.348Z,28.03
2022-08-02T11:37:51.356Z,27.96
2022-08-02T11:38:51.350Z,28.03
2022-08-02T11:39:51.350Z,28.09
2022-08-02T11:40:57.288Z,28.00
2022-08-02T11:41:51.352Z,27.94
2022-08-02T11:42:51.355Z,27.97
2022-08-02T11:43:51.354Z,27.99
2022-08-02T11:44:51.355Z,28.11
2022-08-02T11:45:51.355Z,28.06
2022-08-02T11:46:51.358Z,27.97
2022-08-02T11:47:51.357Z,28.09
2022-08-02T11:48:51.416Z,27.94
2022-08-02T11:49:51.359Z,28.00
2022-08-02T11:50:51.360Z,28.07
2022-08-02T11:51:54.137Z,27.99
2022-08-02T11:52:51.362Z,28.07
2022-08-02T11:53:51.364Z,28.04
2022-08-02T11:54:51.364Z,28.09
2022-08-02T11:55:51.375Z,28.11
2022-08-02T11:56:51.366Z,28.06
2022-08-02T11:58:04.782Z,27.97
2022-08-02T11:58:51.372Z,28.11
2022-08-02T11:59:51.369Z,28.06
2022-08-02T12:00:51.371Z,28.09
2022-08-02T12:01:51.371Z,28.03
2022-08-02T12:02:51.431Z,28.03
2022-08-02T12:03:51.429Z,28.11
2022-08-02T12:04:51.374Z,28.07
2022-08-02T12:06:05.469Z,28.09
2022-08-02T12:06:51.378Z,28.09
2022-08-02T12:07:51.378Z,28.11
2022-08-02T12:08:54.308Z,28.03
2022-08-02T12:09:51.379Z,28.06
2022-08-02T12:10:51.387Z,28.03
2022-08-02T12:11:51.400Z,28.11
2022-08-02T12:12:51.738Z,28.09
2022-08-02T12:13:56.436Z,28.09
2022-08-02T12:14:51.384Z,28.12
2022-08-02T12:15:51.384Z,28.04
2022-08-02T12:16:51.384Z,28.11
2022-08-02T12:17:51.386Z,28.07
2022-08-02T12:18:51.388Z,28.12
2022-08-02T12:19:51.389Z,28.15
2022-08-02T12:20:51.391Z,28.09
2022-08-02T12:21:51.390Z,28.06
2022-08-02T12:22:51.391Z,28.02
2022-08-02T12:23:59.571Z,28.00
2022-08-02T12:24:51.393Z,28.12
2022-08-02T12:25:51.395Z,28.11
2022-08-02T12:26:51.396Z,28.03
2022-08-02T12:27:53.466Z,28.04
2022-08-02T12:28:51.398Z,28.04
2022-08-02T12:29:58.395Z,28.11
2022-08-02T12:30:51.400Z,28.00
2022-08-02T12:31:57.122Z,28.19
2022-08-02T12:32:51.402Z,28.06
2022-08-02T12:33:51.402Z,28.00
2022-08-02T12:34:51.405Z,28.18
2022-08-02T12:35:51.403Z,28.00
2022-08-02T12:36:51.407Z,28.03
2022-08-02T12:37:51.406Z,28.14
2022-08-02T12:38:51.407Z,28.11
2022-08-02T12:39:51.411Z,28.06
2022-08-02T12:40:51.409Z,28.04
2022-08-02T12:41:54.860Z,28.11
2022-08-02T12:42:51.412Z,28.14
2022-08-02T12:43:51.412Z,28.14
2022-08-02T12:44:51.414Z,28.11
2022-08-02T12:45:51.416Z,28.12
2022-08-02T12:46:51.415Z,28.11
2022-08-02T12:47:51.414Z,28.07
2022-08-02T12:49:16.213Z,28.03
2022-08-02T12:49:51.451Z,28.14
2022-08-02T12:50:51.419Z,28.12
2022-08-02T12:51:56.975Z,28.15
2022-08-02T12:52:51.420Z,28.15